Terminal Aerodrome Forecast
Issued by NWS

Home | Current Version | Previous Version | Graphics & Text | Print | Product List | Glossary On
Versions: 1 2 3 4 5 6 7 8 9 10 11 12 13 14 15 16 17 18 19 20 21 22 23 24 25 26
000
FTUS43 KICT 181102 AAA
TAFSLN
TAF AMD
KSLN 181102Z 1811/1906 04004KT P6SM BKN006 OVC025
     FM181500 06006KT P6SM SCT010 OVC035
     FM182000 32009KT P6SM SCT015 BKN050
     FM190300 VRB03KT 5SM BR SCT015 BKN025=

USA.gov is the U.S. government's official web portal to all federal, state and local government web resources and services.